Time;durP1;ratioP1;P1;durP2;ratioP2;P2;SDS_P1;SDS_P2;PMS_P1;PMS_P2;Temp;Humidity;BMP_temperature;BMP_pressure;BME280_temperature;BME280_humidity;BME280_pressure;Samples;Min_cycle;Max_cycle;Signal;HPM_P1;HPM_P2
2024/01/07 00:02:20;;;;;;;9.68;6.80;;;;;;;;;;5047680;28;20494;-59
2024/01/07 00:04:46;;;;;;;8.88;6.07;;;;;;;;;;5039016;28;20045;-59
2024/01/07 00:07:12;;;;;;;8.48;6.22;;;;;;;;;;5040663;28;20453;-59
2024/01/07 00:09:38;;;;;;;8.45;6.32;;;;;;;;;;5039417;28;20052;-59
2024/01/07 00:12:04;;;;;;;8.10;6.32;;;;;;;;;;5036770;28;20041;-59
2024/01/07 00:14:30;;;;;;;8.20;6.05;;;;;;;;;;5038542;28;20052;-58
2024/01/07 00:16:56;;;;;;;7.82;4.68;;;;;;;;;;5040540;28;20048;-59
2024/01/07 00:19:22;;;;;;;7.53;4.90;;;;;;;;;;5042039;28;20646;-59
2024/01/07 00:21:48;;;;;;;8.38;5.07;;;;;;;;;;5041416;28;20086;-58
2024/01/07 00:24:14;;;;;;;8.07;4.75;;;;;;;;;;5036942;28;20069;-59
2024/01/07 00:26:40;;;;;;;8.02;5.13;;;;;;;;;;5041843;28;20166;-59
2024/01/07 00:29:06;;;;;;;7.20;5.00;;;;;;;;;;5046622;28;20619;-59
2024/01/07 00:31:32;;;;;;;6.70;4.78;;;;;;;;;;5045303;28;20093;-59
2024/01/07 00:33:58;;;;;;;8.20;5.47;;;;;;;;;;5043879;28;20474;-59
2024/01/07 00:36:24;;;;;;;9.90;5.97;;;;;;;;;;5045106;28;20037;-59
2024/01/07 00:38:50;;;;;;;7.15;5.25;;;;;;;;;;5043079;28;20041;-59
2024/01/07 00:41:16;;;;;;;7.05;5.07;;;;;;;;;;5044044;28;20122;-59
2024/01/07 00:43:42;;;;;;;7.05;5.60;;;;;;;;;;5042019;28;20037;-59
2024/01/07 00:46:08;;;;;;;6.97;5.22;;;;;;;;;;5040443;28;20751;-59
2024/01/07 00:48:34;;;;;;;7.70;5.88;;;;;;;;;;5042310;28;20044;-58
2024/01/07 00:51:00;;;;;;;7.22;5.45;;;;;;;;;;5039491;28;20068;-59
2024/01/07 00:53:26;;;;;;;6.25;5.13;;;;;;;;;;5039693;28;20040;-59
2024/01/07 00:55:52;;;;;;;6.68;5.05;;;;;;;;;;5040671;28;20045;-59
2024/01/07 00:58:18;;;;;;;7.13;4.85;;;;;;;;;;5034595;28;20044;-59
2024/01/07 01:00:44;;;;;;;5.35;4.63;;;;;;;;;;5035821;28;20037;-58
2024/01/07 01:03:10;;;;;;;5.68;4.68;;;;;;;;;;5037024;28;20186;-59
2024/01/07 01:05:36;;;;;;;4.85;4.00;;;;;;;;;;5037179;28;20037;-59
2024/01/07 01:08:02;;;;;;;8.88;5.57;;;;;;;;;;5042427;28;20056;-59
2024/01/07 01:10:28;;;;;;;5.30;4.38;;;;;;;;;;5043675;28;20056;-59
2024/01/07 01:12:54;;;;;;;7.25;4.38;;;;;;;;;;5041842;28;20044;-58
2024/01/07 01:15:20;;;;;;;7.93;4.88;;;;;;;;;;5037223;28;20220;-59
2024/01/07 01:17:46;;;;;;;6.10;4.68;;;;;;;;;;5041286;28;20044;-59
2024/01/07 01:20:12;;;;;;;5.88;4.03;;;;;;;;;;5040205;28;20033;-59
2024/01/07 01:22:38;;;;;;;5.63;4.88;;;;;;;;;;5043754;28;20517;-59
2024/01/07 01:25:04;;;;;;;5.90;4.75;;;;;;;;;;5045200;28;20059;-59
2024/01/07 01:27:30;;;;;;;5.20;4.13;;;;;;;;;;5044137;28;20046;-59
2024/01/07 01:29:57;;;;;;;7.10;5.38;;;;;;;;;;5044617;28;20037;-59
2024/01/07 01:32:23;;;;;;;7.50;4.90;;;;;;;;;;5045715;28;20085;-59
2024/01/07 01:34:49;;;;;;;6.72;4.35;;;;;;;;;;5045017;28;20111;-58
2024/01/07 01:37:15;;;;;;;8.88;5.28;;;;;;;;;;5044201;28;20041;-59
2024/01/07 01:39:41;;;;;;;7.00;4.82;;;;;;;;;;5042287;28;20041;-59
2024/01/07 01:42:07;;;;;;;6.00;4.18;;;;;;;;;;5044761;28;20060;-59
2024/01/07 01:44:34;;;;;;;7.22;5.22;;;;;;;;;;5044654;28;20045;-59
2024/01/07 01:47:00;;;;;;;7.70;5.05;;;;;;;;;;5040359;28;20041;-59
2024/01/07 01:49:27;;;;;;;6.13;4.35;;;;;;;;;;5041463;28;20041;-59
2024/01/07 01:51:53;;;;;;;6.75;4.55;;;;;;;;;;5039358;28;20044;-59
2024/01/07 01:54:19;;;;;;;8.30;5.75;;;;;;;;;;5039130;28;20037;-59
2024/01/07 01:56:46;;;;;;;6.20;4.63;;;;;;;;;;5037692;28;20072;-59
2024/01/07 01:59:12;;;;;;;5.00;4.03;;;;;;;;;;5035744;28;20068;-59
2024/01/07 02:01:39;;;;;;;6.45;4.30;;;;;;;;;;5037155;28;20045;-59
2024/01/07 02:04:05;;;;;;;5.38;4.10;;;;;;;;;;5037699;28;20048;-59
2024/01/07 02:06:31;;;;;;;4.97;4.45;;;;;;;;;;5036985;28;20528;-59
2024/01/07 02:08:57;;;;;;;5.55;4.55;;;;;;;;;;5039327;28;20053;-59
2024/01/07 02:11:23;;;;;;;4.82;3.90;;;;;;;;;;5037712;28;20738;-58
2024/01/07 02:13:50;;;;;;;5.75;3.95;;;;;;;;;;5037778;28;20546;-59
2024/01/07 02:16:16;;;;;;;4.72;4.13;;;;;;;;;;5044264;28;20051;-59
2024/01/07 02:18:42;;;;;;;6.30;4.13;;;;;;;;;;5040874;28;20132;-59
2024/01/07 02:21:10;;;;;;;4.68;3.75;;;;;;;;;;5046116;28;20044;-58
2024/01/07 02:23:36;;;;;;;5.22;3.80;;;;;;;;;;5038974;28;20512;-59
2024/01/07 02:26:02;;;;;;;6.65;3.67;;;;;;;;;;5040570;28;20044;-59
2024/01/07 02:28:28;;;;;;;6.38;4.32;;;;;;;;;;5041868;28;20072;-59
2024/01/07 02:30:54;;;;;;;6.32;3.80;;;;;;;;;;5041140;28;20041;-59
2024/01/07 02:33:20;;;;;;;7.57;3.78;;;;;;;;;;5040522;28;20051;-59
2024/01/07 02:35:46;;;;;;;6.15;3.45;;;;;;;;;;5042966;28;20392;-59
2024/01/07 02:38:12;;;;;;;5.10;3.38;;;;;;;;;;5043892;28;20087;-59
2024/01/07 02:40:38;;;;;;;4.63;3.20;;;;;;;;;;5041575;28;20072;-59
2024/01/07 02:43:04;;;;;;;4.35;3.67;;;;;;;;;;5042338;28;20098;-58
2024/01/07 02:45:30;;;;;;;6.50;3.60;;;;;;;;;;5042573;28;20123;-59
2024/01/07 02:47:56;;;;;;;6.80;4.10;;;;;;;;;;5040259;28;20045;-58
2024/01/07 02:50:22;;;;;;;4.78;3.38;;;;;;;;;;5041745;28;20547;-59
2024/01/07 02:52:48;;;;;;;5.90;3.78;;;;;;;;;;5038743;28;20043;-59
2024/01/07 02:55:14;;;;;;;5.00;3.15;;;;;;;;;;5036196;28;20116;-58
2024/01/07 02:57:40;;;;;;;6.97;2.92;;;;;;;;;;5040531;28;20753;-58
2024/01/07 03:00:06;;;;;;;3.85;3.38;;;;;;;;;;5036691;28;20037;-58
2024/01/07 03:02:32;;;;;;;4.30;2.70;;;;;;;;;;5032720;28;20423;-58
2024/01/07 03:04:58;;;;;;;4.35;2.60;;;;;;;;;;5019224;28;20491;-59
2024/01/07 03:07:24;;;;;;;3.63;2.97;;;;;;;;;;5037394;28;20518;-59
2024/01/07 03:09:50;;;;;;;6.07;3.33;;;;;;;;;;5038211;28;20056;-59
2024/01/07 03:12:16;;;;;;;2.65;2.40;;;;;;;;;;5034948;28;20073;-58
2024/01/07 03:14:42;;;;;;;3.83;2.67;;;;;;;;;;5040050;28;20029;-59
2024/01/07 03:17:09;;;;;;;4.47;3.35;;;;;;;;;;5039021;28;20029;-59
2024/01/07 03:19:35;;;;;;;3.45;2.40;;;;;;;;;;5040458;28;20756;-59
2024/01/07 03:22:01;;;;;;;2.97;2.65;;;;;;;;;;5039027;28;20120;-59
2024/01/07 03:24:27;;;;;;;3.75;2.63;;;;;;;;;;5039174;28;20132;-59
2024/01/07 03:26:53;;;;;;;3.28;2.63;;;;;;;;;;5040373;28;20060;-59
2024/01/07 03:29:19;;;;;;;4.63;2.65;;;;;;;;;;5042168;28;20044;-59
2024/01/07 03:31:45;;;;;;;2.97;2.42;;;;;;;;;;5042194;28;20758;-59
2024/01/07 03:34:12;;;;;;;5.45;3.00;;;;;;;;;;5042938;28;20080;-59
2024/01/07 03:36:37;;;;;;;3.90;2.72;;;;;;;;;;5042620;28;20048;-58
2024/01/07 03:39:03;;;;;;;4.85;3.17;;;;;;;;;;5042301;28;20368;-58
2024/01/07 03:41:29;;;;;;;4.15;3.25;;;;;;;;;;5044062;28;20041;-59
2024/01/07 03:43:56;;;;;;;3.08;2.78;;;;;;;;;;5042390;28;20040;-59
2024/01/07 03:46:22;;;;;;;2.53;2.30;;;;;;;;;;5044008;28;20037;-59
2024/01/07 03:48:48;;;;;;;4.35;2.50;;;;;;;;;;5040690;28;20139;-58
2024/01/07 03:51:14;;;;;;;2.92;2.60;;;;;;;;;;5045188;28;20067;-59
2024/01/07 03:53:40;;;;;;;3.53;2.17;;;;;;;;;;5043039;28;20414;-59
2024/01/07 03:56:06;;;;;;;2.38;2.10;;;;;;;;;;5043857;28;20076;-59
2024/01/07 03:58:32;;;;;;;2.58;1.85;;;;;;;;;;5041662;28;20061;-59
2024/01/07 04:00:58;;;;;;;2.30;1.98;;;;;;;;;;5043109;28;20090;-59
2024/01/07 04:03:24;;;;;;;2.50;2.28;;;;;;;;;;5039918;28;20040;-59
2024/01/07 04:05:50;;;;;;;3.08;2.40;;;;;;;;;;5039039;28;20045;-59
2024/01/07 04:08:16;;;;;;;3.10;2.05;;;;;;;;;;5041396;28;20668;-59
2024/01/07 04:10:42;;;;;;;4.43;2.42;;;;;;;;;;5035680;28;20048;-59
2024/01/07 04:13:08;;;;;;;2.30;1.67;;;;;;;;;;5042564;28;20044;-59
2024/01/07 04:15:34;;;;;;;2.10;1.65;;;;;;;;;;5043336;28;20071;-59
2024/01/07 04:18:04;;;;;;;4.35;2.28;;;;;;;;;;5037830;28;20033;-59
2024/01/07 04:20:30;;;;;;;2.20;1.63;;;;;;;;;;5038321;28;20049;-58
2024/01/07 04:22:57;;;;;;;2.35;2.05;;;;;;;;;;5039059;28;20029;-59
2024/01/07 04:25:23;;;;;;;3.78;2.63;;;;;;;;;;5040557;28;20120;-59
2024/01/07 04:27:49;;;;;;;2.47;1.80;;;;;;;;;;5039107;28;20267;-59
2024/01/07 04:30:15;;;;;;;3.35;2.22;;;;;;;;;;5044137;28;20053;-58
2024/01/07 04:32:41;;;;;;;2.15;1.92;;;;;;;;;;5047673;28;20044;-59
2024/01/07 04:35:07;;;;;;;3.88;2.70;;;;;;;;;;5044939;28;20394;-58
2024/01/07 04:37:33;;;;;;;2.20;1.60;;;;;;;;;;5044134;28;20051;-58
2024/01/07 04:40:00;;;;;;;2.42;2.03;;;;;;;;;;5044240;28;20049;-58
2024/01/07 04:42:26;;;;;;;4.28;1.75;;;;;;;;;;5029116;28;20049;-59
2024/01/07 04:44:52;;;;;;;3.00;1.90;;;;;;;;;;5045120;28;20105;-59
2024/01/07 04:47:28;;;;;;;2.60;1.90;;;;;;;;;;5046450;28;20037;-59
2024/01/07 04:49:55;;;;;;;3.08;1.60;;;;;;;;;;5043049;28;20403;-59
2024/01/07 04:52:22;;;;;;;3.08;2.00;;;;;;;;;;5040221;28;20032;-59
2024/01/07 04:54:48;;;;;;;2.92;1.88;;;;;;;;;;5040265;28;20072;-59
2024/01/07 04:57:14;;;;;;;2.28;1.65;;;;;;;;;;5042749;28;20628;-59
2024/01/07 04:59:40;;;;;;;2.40;1.77;;;;;;;;;;5041634;28;20049;-58
2024/01/07 05:02:06;;;;;;;2.08;1.77;;;;;;;;;;5041401;28;20549;-59
2024/01/07 05:04:32;;;;;;;2.08;1.75;;;;;;;;;;5042468;28;20128;-59
2024/01/07 05:06:58;;;;;;;3.03;1.30;;;;;;;;;;5038044;28;20037;-58
2024/01/07 05:09:24;;;;;;;5.15;1.50;;;;;;;;;;5037019;28;20046;-59
2024/01/07 05:11:50;;;;;;;2.55;1.42;;;;;;;;;;5036979;28;20050;-59
2024/01/07 05:14:16;;;;;;;2.63;1.80;;;;;;;;;;5039789;28;20430;-58
2024/01/07 05:16:42;;;;;;;3.28;1.60;;;;;;;;;;5038992;28;20086;-59
2024/01/07 05:19:08;;;;;;;2.45;1.60;;;;;;;;;;5035479;28;20466;-59
2024/01/07 05:21:34;;;;;;;2.22;1.63;;;;;;;;;;5033996;28;20052;-58
2024/01/07 05:24:00;;;;;;;2.55;1.45;;;;;;;;;;5036781;28;20124;-59
2024/01/07 05:26:26;;;;;;;2.20;1.50;;;;;;;;;;5042130;28;20215;-59
2024/01/07 05:28:52;;;;;;;1.85;1.10;;;;;;;;;;5041175;28;20399;-59
2024/01/07 05:31:18;;;;;;;3.42;1.58;;;;;;;;;;5042150;28;20037;-59
2024/01/07 05:33:45;;;;;;;2.85;1.05;;;;;;;;;;5044587;28;20045;-58
2024/01/07 05:36:14;;;;;;;2.00;1.23;;;;;;;;;;5036984;28;20056;-59
2024/01/07 05:38:43;;;;;;;2.88;1.50;;;;;;;;;;5044394;28;20033;-59
2024/01/07 05:41:09;;;;;;;2.17;1.23;;;;;;;;;;5040908;28;20437;-58
2024/01/07 05:43:36;;;;;;;2.90;1.20;;;;;;;;;;5045960;28;20053;-59
2024/01/07 05:46:03;;;;;;;1.98;1.10;;;;;;;;;;5045378;28;20032;-59
2024/01/07 05:48:29;;;;;;;1.95;1.00;;;;;;;;;;5045275;28;20078;-59
2024/01/07 05:50:55;;;;;;;1.60;1.15;;;;;;;;;;5043486;28;20196;-59
2024/01/07 05:53:21;;;;;;;2.75;1.05;;;;;;;;;;5043653;28;20577;-59
2024/01/07 05:55:47;;;;;;;1.40;1.00;;;;;;;;;;5043495;28;20040;-58
2024/01/07 05:58:13;;;;;;;1.20;0.88;;;;;;;;;;5042728;28;20033;-59
2024/01/07 06:00:39;;;;;;;1.83;1.10;;;;;;;;;;5042445;28;20103;-59
2024/01/07 06:03:06;;;;;;;1.00;0.90;;;;;;;;;;5040291;28;20111;-59
2024/01/07 06:05:32;;;;;;;1.95;1.10;;;;;;;;;;5039014;28;20041;-58
2024/01/07 06:07:58;;;;;;;1.42;1.10;;;;;;;;;;5037040;28;20140;-58
2024/01/07 06:10:24;;;;;;;2.33;1.20;;;;;;;;;;5039409;28;20080;-59
2024/01/07 06:12:50;;;;;;;2.58;1.25;;;;;;;;;;5036274;28;20544;-59
2024/01/07 06:15:17;;;;;;;3.25;1.20;;;;;;;;;;5037442;28;20040;-58
2024/01/07 06:17:43;;;;;;;2.60;1.20;;;;;;;;;;5036178;28;20091;-59
2024/01/07 06:20:09;;;;;;;2.60;1.52;;;;;;;;;;5036334;28;20120;-58
2024/01/07 06:22:35;;;;;;;5.82;1.23;;;;;;;;;;5037309;28;20091;-58
2024/01/07 06:25:01;;;;;;;4.55;1.38;;;;;;;;;;5041703;28;20041;-59
2024/01/07 06:27:27;;;;;;;3.40;1.50;;;;;;;;;;5037980;28;20064;-58
2024/01/07 06:29:53;;;;;;;1.80;1.30;;;;;;;;;;5042378;28;20110;-59
2024/01/07 06:32:19;;;;;;;2.17;1.67;;;;;;;;;;5038514;28;20033;-59
2024/01/07 06:34:46;;;;;;;3.03;1.10;;;;;;;;;;5041196;28;21978;-59
2024/01/07 06:37:12;;;;;;;1.50;0.98;;;;;;;;;;5040752;28;20375;-58
2024/01/07 06:39:38;;;;;;;2.22;1.30;;;;;;;;;;5044310;28;20060;-58
2024/01/07 06:42:05;;;;;;;1.10;1.00;;;;;;;;;;5046296;28;20040;-59
2024/01/07 06:44:31;;;;;;;1.85;1.25;;;;;;;;;;5041287;28;20052;-59
2024/01/07 06:46:57;;;;;;;2.28;1.20;;;;;;;;;;5042898;28;20379;-59
2024/01/07 06:49:23;;;;;;;1.85;1.10;;;;;;;;;;5041174;28;20036;-59
2024/01/07 06:51:49;;;;;;;1.65;1.00;;;;;;;;;;5042611;28;20515;-59
2024/01/07 06:54:15;;;;;;;1.17;1.00;;;;;;;;;;5038975;28;20087;-59
2024/01/07 06:56:41;;;;;;;2.97;1.35;;;;;;;;;;5040123;28;20045;-59
2024/01/07 06:59:07;;;;;;;2.20;1.23;;;;;;;;;;5039588;28;20037;-58
2024/01/07 07:01:33;;;;;;;1.73;1.10;;;;;;;;;;5039438;28;20043;-58
2024/01/07 07:04:00;;;;;;;1.17;1.08;;;;;;;;;;5037166;28;20045;-59
2024/01/07 07:06:26;;;;;;;1.95;1.35;;;;;;;;;;5044065;28;20048;-59
2024/01/07 07:08:52;;;;;;;2.72;1.10;;;;;;;;;;5039340;28;20102;-59
2024/01/07 07:11:19;;;;;;;3.35;1.20;;;;;;;;;;5038410;28;20032;-59
2024/01/07 07:13:45;;;;;;;1.75;1.13;;;;;;;;;;5019495;28;20155;-58
2024/01/07 07:16:11;;;;;;;2.60;1.27;;;;;;;;;;5035311;28;20455;-59
2024/01/07 07:18:37;;;;;;;1.80;1.10;;;;;;;;;;5036178;28;20658;-59
2024/01/07 07:21:04;;;;;;;3.50;1.40;;;;;;;;;;5035661;28;20052;-58
2024/01/07 07:23:30;;;;;;;1.85;1.10;;;;;;;;;;5032813;28;20064;-59
2024/01/07 07:25:56;;;;;;;1.27;1.08;;;;;;;;;;5038310;28;20036;-58
2024/01/07 07:28:22;;;;;;;3.83;1.20;;;;;;;;;;5036733;28;20042;-58
2024/01/07 07:30:48;;;;;;;1.42;1.10;;;;;;;;;;5040148;28;20614;-59
2024/01/07 07:33:14;;;;;;;1.60;1.50;;;;;;;;;;5037593;28;20043;-59
2024/01/07 07:35:41;;;;;;;3.58;1.33;;;;;;;;;;5034822;28;20145;-59
2024/01/07 07:38:07;;;;;;;1.20;1.10;;;;;;;;;;5036059;28;20045;-59
2024/01/07 07:40:33;;;;;;;1.65;1.17;;;;;;;;;;5037708;28;20052;-59
2024/01/07 07:42:59;;;;;;;2.70;1.63;;;;;;;;;;5040743;28;20037;-59
2024/01/07 07:45:25;;;;;;;1.33;1.10;;;;;;;;;;5020417;28;20785;-58
2024/01/07 07:47:51;;;;;;;0.63;0.60;;;;;;;;;;5041306;28;20122;-58
2024/01/07 07:50:17;;;;;;;2.58;1.55;;;;;;;;;;5043803;28;20045;-58
2024/01/07 07:52:44;;;;;;;1.45;1.23;;;;;;;;;;5045928;28;20045;-59
2024/01/07 07:55:10;;;;;;;2.45;1.10;;;;;;;;;;5046413;28;20072;-59
2024/01/07 07:57:37;;;;;;;1.48;1.20;;;;;;;;;;5046324;28;20064;-59
2024/01/07 08:00:04;;;;;;;1.67;1.17;;;;;;;;;;5043682;28;20041;-59
2024/01/07 08:02:30;;;;;;;1.90;1.25;;;;;;;;;;5040960;28;20060;-59
2024/01/07 08:04:56;;;;;;;1.98;1.00;;;;;;;;;;5043287;28;20048;-58
2024/01/07 08:07:22;;;;;;;1.77;1.00;;;;;;;;;;5045049;28;20045;-59
2024/01/07 08:09:48;;;;;;;1.67;1.40;;;;;;;;;;5039105;28;20049;-58
2024/01/07 08:12:14;;;;;;;1.95;1.40;;;;;;;;;;5043123;28;20063;-59
2024/01/07 08:14:43;;;;;;;1.85;1.45;;;;;;;;;;5040253;28;20106;-59
2024/01/07 08:17:09;;;;;;;1.80;1.65;;;;;;;;;;5041090;28;20044;-58
2024/01/07 08:19:36;;;;;;;1.80;1.30;;;;;;;;;;5038902;28;20048;-58
2024/01/07 08:22:02;;;;;;;2.05;1.63;;;;;;;;;;5037940;28;20087;-58
2024/01/07 08:24:28;;;;;;;1.73;1.60;;;;;;;;;;5038111;28;20052;-59
2024/01/07 08:26:55;;;;;;;2.58;1.52;;;;;;;;;;5036384;28;20037;-58
2024/01/07 08:29:21;;;;;;;3.65;1.83;;;;;;;;;;5040703;28;20044;-58
2024/01/07 08:31:50;;;;;;;3.05;1.50;;;;;;;;;;5040802;28;20037;-58
2024/01/07 08:34:16;;;;;;;1.70;1.60;;;;;;;;;;5044131;28;20823;-58
2024/01/07 08:36:42;;;;;;;3.28;1.60;;;;;;;;;;5040834;28;20049;-59
2024/01/07 08:39:08;;;;;;;3.42;1.20;;;;;;;;;;5043769;28;20402;-59
2024/01/07 08:41:34;;;;;;;2.85;1.20;;;;;;;;;;5037080;28;20043;-59
2024/01/07 08:44:00;;;;;;;2.70;1.42;;;;;;;;;;5037104;28;20363;-58
2024/01/07 08:46:26;;;;;;;3.63;2.33;;;;;;;;;;5040383;28;20075;-58
2024/01/07 08:48:52;;;;;;;2.08;1.42;;;;;;;;;;5036006;28;20862;-58
2024/01/07 08:51:18;;;;;;;1.75;1.42;;;;;;;;;;5038652;28;20147;-59
2024/01/07 08:53:44;;;;;;;1.30;1.20;;;;;;;;;;5031770;28;20045;-59
2024/01/07 08:56:10;;;;;;;1.42;1.13;;;;;;;;;;5038352;28;20064;-58
2024/01/07 08:58:37;;;;;;;1.20;1.10;;;;;;;;;;5042671;28;20136;-59
2024/01/07 09:01:03;;;;;;;1.45;0.95;;;;;;;;;;5040624;28;20433;-59
2024/01/07 09:03:29;;;;;;;1.65;1.08;;;;;;;;;;5042948;28;20053;-58
2024/01/07 09:05:55;;;;;;;3.70;1.20;;;;;;;;;;5039022;28;20041;-58
2024/01/07 09:08:22;;;;;;;1.67;1.20;;;;;;;;;;5046005;28;20114;-59
2024/01/07 09:10:48;;;;;;;4.30;1.20;;;;;;;;;;5047611;28;20037;-59
2024/01/07 09:13:14;;;;;;;1.27;0.90;;;;;;;;;;5045248;28;20103;-59
2024/01/07 09:15:40;;;;;;;1.67;1.00;;;;;;;;;;5042916;28;20514;-58
2024/01/07 09:18:06;;;;;;;1.60;1.17;;;;;;;;;;5047824;28;20137;-59
2024/01/07 09:20:33;;;;;;;2.33;1.40;;;;;;;;;;5027243;28;20449;-59
2024/01/07 09:22:59;;;;;;;2.15;1.30;;;;;;;;;;5046253;28;20048;-59
2024/01/07 09:25:26;;;;;;;3.95;1.50;;;;;;;;;;5045828;28;20693;-59
2024/01/07 09:27:52;;;;;;;1.45;1.35;;;;;;;;;;5045276;28;20049;-60
2024/01/07 09:30:18;;;;;;;3.38;1.48;;;;;;;;;;5041447;28;20119;-59
2024/01/07 09:32:44;;;;;;;2.85;1.50;;;;;;;;;;5038665;28;20048;-58
2024/01/07 09:35:10;;;;;;;2.80;1.40;;;;;;;;;;5042438;28;20051;-54
2024/01/07 09:37:36;;;;;;;1.38;1.20;;;;;;;;;;5036052;28;20041;-55
2024/01/07 09:40:05;;;;;;;3.13;1.70;;;;;;;;;;5044107;28;20041;-56
2024/01/07 09:42:31;;;;;;;2.28;1.70;;;;;;;;;;5042744;28;20469;-60
2024/01/07 09:44:57;;;;;;;5.63;1.55;;;;;;;;;;5048285;28;20044;-56
2024/01/07 09:47:23;;;;;;;2.22;1.50;;;;;;;;;;5041338;28;20387;-58
2024/01/07 09:49:49;;;;;;;1.50;1.30;;;;;;;;;;5030145;28;20048;-57
2024/01/07 09:52:17;;;;;;;2.55;1.35;;;;;;;;;;5036607;28;20037;-58
2024/01/07 09:54:43;;;;;;;1.38;1.20;;;;;;;;;;5032922;28;20063;-58
2024/01/07 09:57:10;;;;;;;1.73;0.90;;;;;;;;;;5032210;28;20050;-58
2024/01/07 09:59:36;;;;;;;1.38;1.15;;;;;;;;;;5033555;28;20504;-59
2024/01/07 10:02:03;;;;;;;1.98;1.25;;;;;;;;;;5035209;28;20028;-58
2024/01/07 10:04:30;;;;;;;2.15;1.20;;;;;;;;;;5036486;28;20049;-58
2024/01/07 10:06:56;;;;;;;2.92;1.27;;;;;;;;;;5033512;28;20057;-58
2024/01/07 10:09:28;;;;;;;1.67;1.55;;;;;;;;;;5035098;28;20056;-59
2024/01/07 10:11:54;;;;;;;1.73;1.48;;;;;;;;;;5034912;28;20115;-58
2024/01/07 10:14:25;;;;;;;1.33;1.15;;;;;;;;;;5031954;28;20132;-58
2024/01/07 10:16:51;;;;;;;1.50;1.40;;;;;;;;;;5035106;28;20537;-58
2024/01/07 10:19:24;;;;;;;2.20;1.77;;;;;;;;;;5030042;28;20144;-59
2024/01/07 10:22:05;;;;;;;3.13;1.50;;;;;;;;;;5031320;28;20049;-60
2024/01/07 10:24:40;;;;;;;3.50;1.65;;;;;;;;;;5034669;28;20068;-60
2024/01/07 10:27:07;;;;;;;2.92;2.17;;;;;;;;;;5034582;28;20041;-59
2024/01/07 10:29:33;;;;;;;2.05;1.30;;;;;;;;;;5038786;28;20537;-60
2024/01/07 10:32:04;;;;;;;1.30;1.20;;;;;;;;;;5024458;28;20410;-59
2024/01/07 10:34:37;;;;;;;1.75;1.40;;;;;;;;;;5024277;28;20421;-60
2024/01/07 10:37:04;;;;;;;2.47;1.50;;;;;;;;;;5026108;28;20052;-59
2024/01/07 10:39:31;;;;;;;1.95;1.40;;;;;;;;;;5043707;28;20052;-60
2024/01/07 10:41:57;;;;;;;1.65;1.30;;;;;;;;;;5044020;28;20071;-59
2024/01/07 10:44:27;;;;;;;2.70;1.38;;;;;;;;;;5043200;28;20089;-59
2024/01/07 10:46:56;;;;;;;1.77;1.27;;;;;;;;;;5042292;28;20037;-60
2024/01/07 10:49:23;;;;;;;2.85;2.00;;;;;;;;;;5043079;28;20048;-60
2024/01/07 10:51:58;;;;;;;3.25;2.22;;;;;;;;;;5042684;28;20045;-59
2024/01/07 10:54:24;;;;;;;2.78;1.40;;;;;;;;;;5035030;28;20082;-60
2024/01/07 10:56:50;;;;;;;1.83;1.63;;;;;;;;;;5042546;28;20144;-60
2024/01/07 10:59:16;;;;;;;1.77;1.58;;;;;;;;;;5042304;28;20601;-60
2024/01/07 11:01:43;;;;;;;1.83;1.30;;;;;;;;;;5042776;28;20080;-60
2024/01/07 11:04:14;;;;;;;4.57;1.67;;;;;;;;;;5025766;28;20080;-59
2024/01/07 11:06:46;;;;;;;4.57;2.08;;;;;;;;;;5043881;28;20059;-59
2024/01/07 11:09:31;;;;;;;3.03;1.60;;;;;;;;;;5043949;28;20407;-60
2024/01/07 11:11:58;;;;;;;3.80;1.60;;;;;;;;;;5043989;28;20168;-60
2024/01/07 11:14:36;;;;;;;1.60;1.42;;;;;;;;;;5043885;28;20037;-60
2024/01/07 11:17:03;;;;;;;2.40;1.67;;;;;;;;;;5044188;28;20044;-59
2024/01/07 11:19:29;;;;;;;2.05;1.40;;;;;;;;;;5044460;28;20637;-60
2024/01/07 11:22:14;;;;;;;2.33;1.58;;;;;;;;;;5047953;28;20483;-60
2024/01/07 11:24:42;;;;;;;2.42;1.20;;;;;;;;;;5048065;28;20089;-60
2024/01/07 11:27:11;;;;;;;1.80;1.45;;;;;;;;;;5048849;28;20454;-59
2024/01/07 11:29:37;;;;;;;2.25;1.30;;;;;;;;;;5048027;28;20491;-60
2024/01/07 11:32:03;;;;;;;2.17;1.60;;;;;;;;;;5047859;28;20123;-60
2024/01/07 11:34:40;;;;;;;1.80;1.60;;;;;;;;;;5047734;28;20277;-60
2024/01/07 11:37:08;;;;;;;2.25;1.25;;;;;;;;;;5040748;28;20056;-60
2024/01/07 11:39:35;;;;;;;1.35;1.25;;;;;;;;;;5047780;28;20090;-60
2024/01/07 11:42:04;;;;;;;2.03;1.48;;;;;;;;;;5047539;28;20080;-60
2024/01/07 11:44:30;;;;;;;1.95;1.70;;;;;;;;;;5048185;28;20049;-59
2024/01/07 11:46:56;;;;;;;1.90;1.70;;;;;;;;;;5047853;28;20434;-59
2024/01/07 11:49:22;;;;;;;3.55;2.13;;;;;;;;;;5047389;28;20049;-59
2024/01/07 11:51:48;;;;;;;2.22;1.95;;;;;;;;;;5047733;28;20041;-60
2024/01/07 11:54:14;;;;;;;3.67;1.90;;;;;;;;;;5047807;28;20275;-60
2024/01/07 11:56:40;;;;;;;2.95;2.50;;;;;;;;;;5047228;28;20057;-60
2024/01/07 11:59:07;;;;;;;5.13;2.15;;;;;;;;;;5048133;28;20048;-60
2024/01/07 12:01:33;;;;;;;2.22;1.73;;;;;;;;;;5029729;28;20056;-60
2024/01/07 12:03:59;;;;;;;2.17;1.95;;;;;;;;;;5047265;28;20045;-60
2024/01/07 12:06:25;;;;;;;4.03;2.05;;;;;;;;;;5048103;28;20037;-60
2024/01/07 12:08:52;;;;;;;2.90;2.47;;;;;;;;;;5047483;28;20063;-60
2024/01/07 12:11:19;;;;;;;3.85;2.13;;;;;;;;;;5046994;28;20037;-59
2024/01/07 12:13:45;;;;;;;4.25;2.28;;;;;;;;;;5047641;28;20090;-60
2024/01/07 12:16:11;;;;;;;3.20;2.20;;;;;;;;;;5047698;28;20390;-60
2024/01/07 12:18:38;;;;;;;4.88;2.30;;;;;;;;;;5029763;28;20445;-60
2024/01/07 12:21:04;;;;;;;5.85;2.47;;;;;;;;;;5047257;28;20098;-60
2024/01/07 12:23:35;;;;;;;2.47;2.10;;;;;;;;;;5047459;28;20316;-60
2024/01/07 12:26:08;;;;;;;3.17;2.13;;;;;;;;;;5045698;28;20045;-60
2024/01/07 12:28:34;;;;;;;3.85;2.35;;;;;;;;;;5046223;28;20549;-60
2024/01/07 12:31:01;;;;;;;6.03;2.55;;;;;;;;;;5045265;28;20549;-59
2024/01/07 12:33:29;;;;;;;4.97;1.85;;;;;;;;;;5046618;28;20048;-60
2024/01/07 12:35:55;;;;;;;1.92;1.73;;;;;;;;;;5046896;28;20095;-60
2024/01/07 12:38:25;;;;;;;2.60;2.10;;;;;;;;;;5046484;28;20581;-60
2024/01/07 12:40:51;;;;;;;3.15;1.88;;;;;;;;;;5046747;28;20055;-60
2024/01/07 12:43:17;;;;;;;3.92;2.08;;;;;;;;;;5046831;28;20449;-59
2024/01/07 12:45:44;;;;;;;4.22;2.13;;;;;;;;;;5046494;28;20040;-60
2024/01/07 12:48:10;;;;;;;2.33;1.80;;;;;;;;;;5047859;28;20133;-60
2024/01/07 12:50:36;;;;;;;2.88;1.60;;;;;;;;;;5047208;28;20140;-60
2024/01/07 12:53:02;;;;;;;3.15;1.80;;;;;;;;;;5046142;28;20120;-60
2024/01/07 12:55:29;;;;;;;3.08;2.10;;;;;;;;;;5046832;28;20045;-60
2024/01/07 12:57:56;;;;;;;4.13;2.22;;;;;;;;;;5046724;28;20041;-59
2024/01/07 13:00:22;;;;;;;2.15;1.85;;;;;;;;;;5046343;28;20068;-60
2024/01/07 13:02:48;;;;;;;4.15;2.08;;;;;;;;;;5046445;28;20064;-59
2024/01/07 13:05:14;;;;;;;1.70;1.60;;;;;;;;;;5046355;28;20140;-60
2024/01/07 13:07:40;;;;;;;3.08;1.80;;;;;;;;;;5046063;28;20144;-60
2024/01/07 13:10:06;;;;;;;1.50;1.40;;;;;;;;;;5046954;28;20048;-60
2024/01/07 13:12:33;;;;;;;6.00;1.73;;;;;;;;;;5028279;28;20079;-60
2024/01/07 13:14:58;;;;;;;2.13;1.88;;;;;;;;;;5046065;28;20058;-60
2024/01/07 13:17:24;;;;;;;2.28;1.65;;;;;;;;;;5046041;28;20033;-60
2024/01/07 13:19:50;;;;;;;4.88;2.15;;;;;;;;;;5045676;28;20048;-60
2024/01/07 13:22:16;;;;;;;3.83;1.70;;;;;;;;;;5046091;28;20037;-60
2024/01/07 13:24:43;;;;;;;2.67;1.73;;;;;;;;;;5045700;28;20045;-60
2024/01/07 13:27:08;;;;;;;5.07;2.92;;;;;;;;;;5046215;28;20417;-60
2024/01/07 13:29:35;;;;;;;5.30;2.20;;;;;;;;;;5046222;28;20421;-60
2024/01/07 13:32:01;;;;;;;2.33;2.00;;;;;;;;;;5045802;28;20460;-60
2024/01/07 13:34:27;;;;;;;3.25;2.20;;;;;;;;;;5045318;28;20037;-60
2024/01/07 13:36:53;;;;;;;3.13;2.15;;;;;;;;;;5045759;28;20041;-60
2024/01/07 13:39:21;;;;;;;2.08;1.80;;;;;;;;;;5046015;28;20047;-59
2024/01/07 13:41:47;;;;;;;5.07;2.08;;;;;;;;;;5027453;28;20411;-60
2024/01/07 13:44:17;;;;;;;3.42;2.35;;;;;;;;;;5044813;28;20036;-60
2024/01/07 13:46:46;;;;;;;3.92;1.92;;;;;;;;;;5045732;28;20036;-59
2024/01/07 13:49:13;;;;;;;7.55;2.40;;;;;;;;;;5045104;28;20029;-60
2024/01/07 13:51:40;;;;;;;3.08;2.35;;;;;;;;;;5028152;28;20132;-59
2024/01/07 13:54:07;;;;;;;6.07;1.98;;;;;;;;;;5045610;28;20049;-60
2024/01/07 13:56:35;;;;;;;2.83;2.00;;;;;;;;;;5045443;28;20091;-59
2024/01/07 13:59:02;;;;;;;2.58;1.50;;;;;;;;;;5045615;28;20052;-60
2024/01/07 14:01:29;;;;;;;4.15;2.00;;;;;;;;;;5045396;28;20071;-60
2024/01/07 14:03:55;;;;;;;2.90;1.83;;;;;;;;;;5044655;28;20092;-60
2024/01/07 14:06:21;;;;;;;2.97;1.83;;;;;;;;;;5045168;28;20071;-60
2024/01/07 14:08:47;;;;;;;2.38;1.70;;;;;;;;;;5044966;28;20064;-59
2024/01/07 14:11:13;;;;;;;3.25;2.55;;;;;;;;;;5044705;28;20033;-60
2024/01/07 14:13:39;;;;;;;3.20;2.30;;;;;;;;;;5045275;28;20048;-60
2024/01/07 14:16:06;;;;;;;2.65;1.85;;;;;;;;;;5044611;28;20040;-60
2024/01/07 14:18:32;;;;;;;3.17;2.38;;;;;;;;;;5045160;28;20375;-59
2024/01/07 14:20:58;;;;;;;3.28;2.05;;;;;;;;;;5044869;28;20671;-60
2024/01/07 14:23:24;;;;;;;3.42;2.35;;;;;;;;;;5044867;28;20029;-60
2024/01/07 14:25:50;;;;;;;2.40;1.80;;;;;;;;;;5044938;28;20036;-60
2024/01/07 14:28:16;;;;;;;2.00;1.77;;;;;;;;;;5044715;28;20040;-60
2024/01/07 14:30:42;;;;;;;2.28;1.90;;;;;;;;;;5044368;28;20036;-60
2024/01/07 14:33:08;;;;;;;3.10;1.60;;;;;;;;;;5045436;28;20448;-60
2024/01/07 14:35:34;;;;;;;2.20;1.60;;;;;;;;;;5044894;28;20037;-60
2024/01/07 14:38:00;;;;;;;1.98;1.50;;;;;;;;;;5044248;28;20422;-60
2024/01/07 14:40:26;;;;;;;2.00;1.60;;;;;;;;;;5044610;28;20793;-60